createdAt,value
2023-02-04T00:01:58.516Z,9.32
2023-02-04T00:04:24.916Z,9.32
2023-02-04T00:06:51.416Z,9.30
2023-02-04T00:09:17.827Z,9.25
2023-02-04T00:11:44.928Z,9.31
2023-02-04T00:14:12.605Z,9.30
2023-02-04T00:16:38.998Z,9.29
2023-02-04T00:19:05.395Z,9.26
2023-02-04T00:21:31.871Z,9.27
2023-02-04T00:23:58.337Z,9.21
2023-02-04T00:26:24.691Z,9.24
2023-02-04T00:28:51.219Z,9.25
2023-02-04T00:31:17.807Z,9.25
2023-02-04T00:33:44.271Z,9.25
2023-02-04T00:36:10.705Z,9.22
2023-02-04T00:38:37.233Z,9.24
2023-02-04T00:41:03.655Z,9.22
2023-02-04T00:43:30.130Z,9.23
2023-02-04T00:45:56.610Z,9.21
2023-02-04T00:48:23.654Z,9.26
2023-02-04T00:50:50.885Z,9.20
2023-02-04T00:53:17.230Z,9.16
2023-02-04T00:55:43.644Z,9.13
2023-02-04T00:58:10.316Z,9.15
2023-02-04T01:00:36.856Z,9.19
2023-02-04T01:03:03.527Z,9.17
2023-02-04T01:05:29.956Z,9.15
2023-02-04T01:07:56.351Z,9.12
2023-02-04T01:10:22.834Z,9.12
2023-02-04T01:12:49.372Z,9.11
2023-02-04T01:15:15.951Z,9.06
2023-02-04T01:17:42.412Z,9.09
2023-02-04T01:20:10.315Z,9.15
2023-02-04T01:22:36.777Z,9.15
2023-02-04T01:25:03.442Z,9.12
2023-02-04T01:27:29.772Z,9.14
2023-02-04T01:29:56.147Z,9.10
2023-02-04T01:32:22.593Z,9.07
2023-02-04T01:34:48.924Z,9.10
2023-02-04T01:37:15.658Z,9.12
2023-02-04T01:39:42.167Z,9.17
2023-02-04T01:42:09.126Z,9.12
2023-02-04T01:44:36.278Z,9.15
2023-02-04T01:47:02.958Z,9.11
2023-02-04T01:49:29.538Z,9.15
2023-02-04T01:51:56.130Z,9.15
2023-02-04T01:54:22.863Z,9.13
2023-02-04T01:56:51.457Z,9.19
2023-02-04T01:59:18.759Z,9.24
2023-02-04T02:01:47.924Z,9.28
2023-02-04T02:04:17.455Z,9.14
2023-02-04T02:06:55.344Z,9.17
2023-02-04T02:09:21.844Z,9.19
2023-02-04T02:11:48.334Z,9.16
2023-02-04T02:14:15.079Z,9.22
2023-02-04T02:16:41.556Z,9.20
2023-02-04T02:19:14.734Z,9.22
2023-02-04T02:21:48.476Z,9.17
2023-02-04T02:24:27.095Z,9.18
2023-02-04T02:26:55.447Z,9.19
2023-02-04T02:29:22.844Z,9.20
2023-02-04T02:31:50.475Z,9.20
2023-02-04T02:34:16.999Z,9.17
2023-02-04T02:36:43.390Z,9.17
2023-02-04T02:39:10.092Z,9.04
2023-02-04T02:41:36.638Z,9.01
2023-02-04T02:44:03.750Z,9.03
2023-02-04T02:46:30.140Z,9.08
2023-02-04T02:48:56.767Z,9.10
2023-02-04T02:51:23.144Z,9.09
2023-02-04T02:53:49.822Z,9.05
2023-02-04T02:56:19.021Z,9.02
2023-02-04T02:58:45.686Z,8.99
2023-02-04T03:01:12.683Z,8.98
2023-02-04T03:03:45.567Z,8.94
2023-02-04T03:06:16.061Z,8.95
2023-02-04T03:08:44.219Z,9.00
2023-02-04T03:11:10.958Z,9.05
2023-02-04T03:13:37.943Z,9.04
2023-02-04T03:16:05.915Z,9.02
2023-02-04T03:18:32.530Z,9.02
2023-02-04T03:20:59.003Z,9.01
2023-02-04T03:23:27.216Z,9.02
2023-02-04T03:25:54.431Z,9.08
2023-02-04T03:28:20.858Z,9.02
2023-02-04T03:30:53.694Z,9.03
2023-02-04T03:33:20.210Z,8.96
2023-02-04T03:35:47.044Z,9.00
2023-02-04T03:38:13.519Z,9.00
2023-02-04T03:40:39.939Z,9.02
2023-02-04T03:43:06.343Z,9.00
2023-02-04T03:45:44.734Z,9.03
2023-02-04T03:48:11.828Z,8.96
2023-02-04T03:50:38.218Z,8.90
2023-02-04T03:53:04.714Z,8.92
2023-02-04T03:55:32.990Z,8.87
2023-02-04T03:57:59.497Z,8.89
2023-02-04T04:00:25.893Z,8.92
2023-02-04T04:02:52.436Z,8.94
2023-02-04T04:05:19.157Z,8.91
2023-02-04T04:07:45.868Z,8.86
2023-02-04T04:10:12.301Z,8.87
2023-02-04T04:12:38.684Z,8.87
2023-02-04T04:15:05.950Z,8.84
2023-02-04T04:17:32.703Z,8.82
2023-02-04T04:19:59.216Z,8.79
2023-02-04T04:22:25.623Z,8.76
2023-02-04T04:24:52.135Z,8.77
2023-02-04T04:27:18.743Z,8.76
2023-02-04T04:29:45.163Z,8.76
2023-02-04T04:32:11.629Z,8.75
2023-02-04T04:34:38.067Z,8.73
2023-02-04T04:37:04.484Z,8.68
2023-02-04T04:39:30.833Z,8.63
2023-02-04T04:41:57.201Z,8.59
2023-02-04T04:44:23.782Z,8.59
2023-02-04T04:46:50.175Z,8.58
2023-02-04T04:49:16.595Z,8.56
2023-02-04T04:51:43.102Z,8.53
2023-02-04T04:54:09.530Z,8.57
2023-02-04T04:56:35.914Z,8.63
2023-02-04T04:59:03.371Z,8.65
2023-02-04T05:01:29.829Z,8.68
2023-02-04T05:03:56.374Z,8.67
2023-02-04T05:06:25.391Z,8.60
2023-02-04T05:08:52.538Z,8.63
2023-02-04T05:11:18.992Z,8.59
2023-02-04T05:13:45.586Z,8.57
2023-02-04T05:16:12.366Z,8.46
2023-02-04T05:18:42.277Z,8.47
2023-02-04T05:21:08.774Z,8.52
2023-02-04T05:23:35.527Z,8.55
2023-02-04T05:26:01.994Z,8.61
2023-02-04T05:28:28.515Z,8.59
2023-02-04T05:30:54.864Z,8.56
2023-02-04T05:33:21.297Z,8.62
2023-02-04T05:35:49.836Z,8.63
2023-02-04T05:38:16.765Z,8.58
2023-02-04T05:40:43.202Z,8.62
2023-02-04T05:43:09.724Z,8.60
2023-02-04T05:45:36.113Z,8.59
2023-02-04T05:48:02.556Z,8.58
2023-02-04T05:50:28.911Z,8.59
2023-02-04T05:52:56.370Z,8.51
2023-02-04T05:55:22.819Z,8.53
2023-02-04T05:57:49.277Z,8.51
2023-02-04T06:00:15.826Z,8.49
2023-02-04T06:02:42.209Z,8.49
2023-02-04T06:05:08.752Z,8.49
2023-02-04T06:07:35.307Z,8.45
2023-02-04T06:10:01.698Z,8.48
2023-02-04T06:12:28.138Z,8.50
2023-02-04T06:14:55.145Z,8.50
2023-02-04T06:17:21.520Z,8.54
2023-02-04T06:19:47.915Z,8.56
2023-02-04T06:22:14.336Z,8.56
2023-02-04T06:24:40.749Z,8.56
2023-02-04T06:27:07.108Z,8.56
2023-02-04T06:29:33.542Z,8.56
2023-02-04T06:31:59.943Z,8.58
2023-02-04T06:34:26.319Z,8.56
2023-02-04T06:36:52.842Z,8.57
2023-02-04T06:39:19.229Z,8.54
2023-02-04T06:41:45.619Z,8.55
2023-02-04T06:44:12.118Z,8.55
2023-02-04T06:46:38.498Z,8.56
2023-02-04T06:49:04.882Z,8.48
2023-02-04T06:51:31.357Z,8.51
2023-02-04T06:53:59.268Z,8.51
2023-02-04T06:56:26.902Z,8.48
2023-02-04T06:58:53.289Z,8.46
2023-02-04T07:01:19.779Z,8.47
2023-02-04T07:03:46.909Z,8.47
2023-02-04T07:06:13.402Z,8.47
2023-02-04T07:08:39.977Z,8.48
2023-02-04T07:11:06.563Z,8.44
2023-02-04T07:13:33.018Z,8.41
2023-02-04T07:15:59.663Z,8.46
2023-02-04T07:18:26.194Z,8.51
2023-02-04T07:20:52.532Z,8.51
2023-02-04T07:23:19.162Z,8.47
2023-02-04T07:25:45.573Z,8.48
2023-02-04T07:28:12.014Z,8.47
2023-02-04T07:30:38.684Z,8.48
2023-02-04T07:33:05.195Z,8.54
2023-02-04T07:35:31.692Z,8.55
2023-02-04T07:37:58.134Z,8.54
2023-02-04T07:40:24.497Z,8.58
2023-02-04T07:42:50.956Z,8.67
2023-02-04T07:45:17.548Z,8.65
2023-02-04T07:47:44.029Z,8.71
2023-02-04T07:50:10.445Z,8.71
2023-02-04T07:52:37.000Z,8.72
2023-02-04T07:55:03.456Z,8.72
2023-02-04T07:57:30.140Z,8.69
2023-02-04T07:59:56.740Z,8.72
2023-02-04T08:02:23.237Z,8.74
2023-02-04T08:04:49.685Z,8.68
2023-02-04T08:07:16.134Z,8.66
2023-02-04T08:09:42.609Z,8.67
2023-02-04T08:12:09.137Z,8.67
2023-02-04T08:14:35.557Z,8.74
2023-02-04T08:17:02.148Z,8.75
2023-02-04T08:19:28.702Z,8.79
2023-02-04T08:21:55.040Z,8.77
2023-02-04T08:24:21.539Z,8.77
2023-02-04T08:26:48.045Z,8.77
2023-02-04T08:29:14.484Z,8.79
2023-02-04T08:31:41.245Z,8.78
2023-02-04T08:34:07.843Z,8.83
2023-02-04T08:36:34.572Z,8.83
2023-02-04T08:39:01.144Z,8.80
2023-02-04T08:41:27.586Z,8.79
2023-02-04T08:43:53.959Z,8.78
2023-02-04T08:46:20.371Z,8.86
2023-02-04T08:48:46.715Z,8.83
2023-02-04T08:51:13.814Z,8.84
2023-02-04T08:53:40.718Z,8.95
2023-02-04T08:56:08.845Z,8.96
2023-02-04T08:58:35.438Z,8.94
2023-02-04T09:01:02.152Z,8.96
2023-02-04T09:03:28.644Z,9.02
2023-02-04T09:05:55.030Z,9.09
2023-02-04T09:08:23.554Z,8.95
2023-02-04T09:10:49.903Z,8.93
2023-02-04T09:13:16.502Z,8.98
2023-02-04T09:15:42.923Z,9.04
2023-02-04T09:18:16.770Z,9.03
2023-02-04T09:20:46.666Z,9.10
2023-02-04T09:23:13.426Z,9.11
2023-02-04T09:25:40.761Z,9.18
2023-02-04T09:28:10.041Z,9.20
2023-02-04T09:30:36.553Z,9.18
2023-02-04T09:33:03.119Z,9.19
2023-02-04T09:35:29.457Z,9.24
2023-02-04T09:37:55.978Z,9.30
2023-02-04T09:40:22.610Z,9.38
2023-02-04T09:42:51.385Z,9.41
2023-02-04T09:45:23.465Z,9.43
2023-02-04T09:47:51.436Z,9.45
2023-02-04T09:50:22.011Z,9.42
2023-02-04T09:52:50.624Z,9.44
2023-02-04T09:55:19.719Z,9.45
2023-02-04T09:57:47.579Z,9.44
2023-02-04T10:00:20.554Z,9.50
2023-02-04T10:02:47.249Z,9.51
2023-02-04T10:05:16.697Z,9.54
2023-02-04T10:07:45.120Z,9.61
2023-02-04T10:10:20.386Z,9.68
2023-02-04T10:12:48.157Z,9.67
2023-02-04T10:15:19.431Z,9.68
2023-02-04T10:17:47.136Z,9.68
2023-02-04T10:20:22.135Z,9.70
2023-02-04T10:22:51.393Z,9.76
2023-02-04T10:25:20.205Z,9.82
2023-02-04T10:27:58.726Z,9.83
2023-02-04T10:30:35.601Z,9.88
2023-02-04T10:33:16.691Z,9.90
2023-02-04T10:35:49.205Z,9.88
2023-02-04T10:38:16.077Z,9.86
2023-02-04T10:40:43.022Z,9.88
2023-02-04T10:43:30.746Z,9.96
2023-02-04T10:46:03.019Z,10.03
2023-02-04T10:48:32.480Z,10.01
2023-02-04T10:50:59.244Z,10.00
2023-02-04T10:53:45.312Z,10.09
2023-02-04T10:56:21.127Z,10.09
2023-02-04T10:58:48.116Z,10.15
2023-02-04T11:01:16.718Z,10.07
2023-02-04T11:03:44.321Z,10.07
2023-02-04T11:06:15.861Z,10.17
2023-02-04T11:08:42.616Z,10.16
2023-02-04T11:11:16.652Z,10.22
2023-02-04T11:13:45.889Z,10.29
2023-02-04T11:16:23.930Z,10.32
2023-02-04T11:19:01.645Z,10.27
2023-02-04T11:21:34.099Z,10.32
2023-02-04T11:24:06.835Z,10.33
2023-02-04T11:26:36.890Z,10.36
2023-02-04T11:29:03.179Z,10.39
2023-02-04T11:31:43.583Z,10.41
2023-02-04T11:34:12.214Z,10.31
2023-02-04T11:36:57.227Z,10.27
2023-02-04T11:39:28.855Z,10.25
2023-02-04T11:41:55.303Z,10.29
2023-02-04T11:44:23.071Z,10.27
2023-02-04T11:46:52.217Z,10.32
2023-02-04T11:49:20.434Z,10.26
2023-02-04T11:51:47.282Z,10.32
2023-02-04T11:54:18.867Z,10.39
2023-02-04T11:56:46.816Z,10.47
2023-02-04T11:59:14.718Z,10.51
2023-02-04T12:01:41.453Z,10.48
2023-02-04T12:04:21.571Z,10.51
2023-02-04T12:07:02.127Z,10.57
2023-02-04T12:09:31.550Z,10.61
2023-02-04T12:12:03.301Z,10.68
2023-02-04T12:14:33.319Z,10.67
2023-02-04T12:17:00.131Z,10.65
2023-02-04T12:19:27.758Z,10.64
2023-02-04T12:21:55.355Z,10.60
2023-02-04T12:24:21.864Z,10.58
2023-02-04T12:26:48.283Z,10.55
2023-02-04T12:29:14.753Z,10.47
2023-02-04T12:31:41.225Z,10.56
2023-02-04T12:34:07.759Z,10.60
2023-02-04T12:36:34.295Z,10.57
2023-02-04T12:39:00.676Z,10.61
2023-02-04T12:41:28.368Z,10.49
2023-02-04T12:43:55.746Z,10.56
2023-02-04T12:46:22.490Z,10.66
2023-02-04T12:48:49.075Z,10.73
2023-02-04T12:51:15.746Z,10.75
2023-02-04T12:53:42.285Z,10.69
2023-02-04T12:56:08.766Z,10.73
2023-02-04T12:58:35.352Z,10.83
2023-02-04T13:01:04.141Z,10.80
2023-02-04T13:03:31.060Z,10.86
2023-02-04T13:05:57.764Z,10.79
2023-02-04T13:08:24.243Z,10.77
2023-02-04T13:10:52.073Z,10.86
2023-02-04T13:13:19.758Z,10.95
2023-02-04T13:15:46.572Z,11.07
2023-02-04T13:18:12.987Z,11.18
2023-02-04T13:20:39.729Z,11.13
2023-02-04T13:23:07.696Z,10.97
2023-02-04T13:25:34.367Z,11.00
2023-02-04T13:28:01.120Z,11.16
2023-02-04T13:30:27.564Z,11.21
2023-02-04T13:32:54.021Z,11.30
2023-02-04T13:35:20.652Z,11.26
2023-02-04T13:37:47.016Z,11.31
2023-02-04T13:40:13.738Z,11.39
2023-02-04T13:42:40.184Z,11.45
2023-02-04T13:45:09.152Z,11.40
2023-02-04T13:47:35.617Z,11.51
2023-02-04T13:50:02.144Z,11.67
2023-02-04T13:52:28.486Z,11.75
2023-02-04T13:54:55.130Z,11.71
2023-02-04T13:57:21.817Z,11.86
2023-02-04T13:59:48.255Z,12.15
2023-02-04T14:02:14.738Z,12.67
2023-02-04T14:04:43.887Z,12.83
2023-02-04T14:07:10.656Z,12.66
2023-02-04T14:09:37.076Z,12.47
2023-02-04T14:12:03.914Z,12.40
2023-02-04T14:14:30.299Z,12.29
2023-02-04T14:16:56.793Z,12.17
2023-02-04T14:19:27.597Z,12.09
2023-02-04T14:21:54.158Z,11.98
2023-02-04T14:24:20.585Z,11.77
2023-02-04T14:26:47.997Z,12.13
2023-02-04T14:29:14.606Z,12.94
2023-02-04T14:31:41.167Z,13.59
2023-02-04T14:34:07.831Z,14.04
2023-02-04T14:36:34.305Z,14.66
2023-02-04T14:39:00.976Z,15.10
2023-02-04T14:41:30.116Z,15.51
2023-02-04T14:43:57.259Z,15.47
2023-02-04T14:46:23.933Z,15.41
2023-02-04T14:48:52.193Z,15.60
2023-02-04T14:51:19.601Z,15.70
2023-02-04T14:53:48.725Z,15.93
2023-02-04T14:56:15.997Z,15.80
2023-02-04T14:58:42.412Z,15.48
2023-02-04T15:01:08.832Z,15.33
2023-02-04T15:03:35.302Z,15.42
2023-02-04T15:06:01.705Z,15.02
2023-02-04T15:08:28.085Z,14.55
2023-02-04T15:10:54.641Z,14.09
2023-02-04T15:13:21.171Z,13.69
2023-02-04T15:15:47.547Z,13.37
2023-02-04T15:18:14.164Z,13.14
2023-02-04T15:20:40.567Z,12.93
2023-02-04T15:23:07.099Z,12.75
2023-02-04T15:25:33.495Z,12.48
2023-02-04T15:27:59.994Z,12.32
2023-02-04T15:30:26.599Z,12.19
2023-02-04T15:32:52.979Z,12.03
2023-02-04T15:35:19.608Z,11.89
2023-02-04T15:37:46.175Z,11.77
2023-02-04T15:40:12.722Z,11.64
2023-02-04T15:42:39.213Z,11.58
2023-02-04T15:45:06.585Z,11.47
2023-02-04T15:47:33.099Z,11.34
2023-02-04T15:49:59.434Z,11.35
2023-02-04T15:52:26.622Z,11.35
2023-02-04T15:54:54.323Z,11.27
2023-02-04T15:57:20.776Z,11.14
2023-02-04T15:59:47.273Z,11.08
2023-02-04T16:02:13.856Z,11.00
2023-02-04T16:04:41.589Z,10.95
2023-02-04T16:07:08.540Z,10.93
2023-02-04T16:09:35.883Z,10.89
2023-02-04T16:12:02.938Z,10.83
2023-02-04T16:14:29.577Z,10.79
2023-02-04T16:16:55.914Z,10.74
2023-02-04T16:19:22.339Z,10.71
2023-02-04T16:21:48.851Z,10.63
2023-02-04T16:24:18.379Z,10.57
2023-02-04T16:26:45.589Z,10.52
2023-02-04T16:29:12.123Z,10.49
2023-02-04T16:31:38.608Z,10.47
2023-02-04T16:34:04.972Z,10.42
2023-02-04T16:36:31.384Z,10.37
2023-02-04T16:38:59.353Z,10.35
2023-02-04T16:41:25.770Z,10.29
2023-02-04T16:43:52.337Z,10.26
2023-02-04T16:46:19.156Z,10.25
2023-02-04T16:48:45.582Z,10.20
2023-02-04T16:51:12.156Z,10.20
2023-02-04T16:53:39.104Z,10.17
2023-02-04T16:56:05.938Z,10.13
2023-02-04T16:58:32.549Z,10.14
2023-02-04T17:00:59.837Z,10.09
2023-02-04T17:03:28.091Z,10.03
2023-02-04T17:05:54.660Z,9.99
2023-02-04T17:08:21.085Z,9.97
2023-02-04T17:11:06.153Z,9.94
2023-02-04T17:13:32.778Z,9.92
2023-02-04T17:16:01.269Z,9.91
2023-02-04T17:18:29.747Z,9.86
2023-02-04T17:20:56.740Z,9.85
2023-02-04T17:23:23.146Z,9.80
2023-02-04T17:25:49.686Z,9.70
2023-02-04T17:28:16.111Z,9.64
2023-02-04T17:30:42.659Z,9.58
2023-02-04T17:33:09.085Z,9.51
2023-02-04T17:35:35.829Z,9.44
2023-02-04T17:38:02.434Z,9.38
2023-02-04T17:40:28.889Z,9.42
2023-02-04T17:42:56.487Z,9.41
2023-02-04T17:45:22.895Z,9.37
2023-02-04T17:47:49.340Z,9.43
2023-02-04T17:50:15.897Z,9.38
2023-02-04T17:52:42.319Z,9.39
2023-02-04T17:55:24.009Z,9.32
2023-02-04T17:57:51.171Z,9.23
2023-02-04T18:00:20.245Z,9.18
2023-02-04T18:02:48.745Z,9.18
2023-02-04T18:05:21.954Z,9.19
2023-02-04T18:08:10.294Z,9.19
2023-02-04T18:10:42.415Z,9.19
2023-02-04T18:13:18.649Z,9.13
2023-02-04T18:15:48.892Z,9.11
2023-02-04T18:18:20.286Z,9.09
2023-02-04T18:20:47.933Z,9.12
2023-02-04T18:23:17.049Z,9.12
2023-02-04T18:25:43.900Z,9.12
2023-02-04T18:28:17.891Z,9.11
2023-02-04T18:30:45.628Z,9.03
2023-02-04T18:33:18.514Z,9.00
2023-02-04T18:35:51.588Z,8.97
2023-02-04T18:38:34.243Z,9.08
2023-02-04T18:41:18.970Z,9.08
2023-02-04T18:43:50.669Z,9.01
2023-02-04T18:46:25.515Z,9.01
2023-02-04T18:49:02.454Z,8.93
2023-02-04T18:51:31.977Z,8.92
2023-02-04T18:54:01.341Z,9.05
2023-02-04T18:56:34.647Z,8.93
2023-02-04T18:59:01.056Z,8.90
2023-02-04T19:01:27.759Z,8.83
2023-02-04T19:03:56.159Z,8.80
2023-02-04T19:06:32.953Z,8.85
2023-02-04T19:09:05.189Z,8.87
2023-02-04T19:11:36.003Z,8.90
2023-02-04T19:14:11.992Z,8.98
2023-02-04T19:16:38.503Z,8.99
2023-02-04T19:19:29.374Z,8.78
2023-02-04T19:21:56.000Z,8.68
2023-02-04T19:24:24.763Z,8.62
2023-02-04T19:26:57.897Z,8.64
2023-02-04T19:29:33.280Z,8.58
2023-02-04T19:32:08.300Z,8.49
2023-02-04T19:34:38.064Z,8.62
2023-02-04T19:37:26.714Z,8.72
2023-02-04T19:39:55.453Z,8.78
2023-02-04T19:42:32.720Z,8.79
2023-02-04T19:45:13.895Z,8.82
2023-02-04T19:47:44.947Z,8.83
2023-02-04T19:50:21.491Z,8.82
2023-02-04T19:52:52.211Z,8.84
2023-02-04T19:55:18.595Z,8.83
2023-02-04T19:57:48.287Z,8.83
2023-02-04T20:00:34.206Z,8.88
2023-02-04T20:03:02.191Z,8.90
2023-02-04T20:05:32.678Z,8.78
2023-02-04T20:08:36.667Z,8.71
2023-02-04T20:11:33.089Z,8.60
2023-02-04T20:14:21.176Z,8.74
2023-02-04T20:16:52.259Z,8.71
2023-02-04T20:19:20.177Z,8.65
2023-02-04T20:21:58.768Z,8.58
2023-02-04T20:24:34.058Z,8.62
2023-02-04T20:27:12.002Z,8.53
2023-02-04T20:29:38.486Z,8.48
2023-02-04T20:32:26.236Z,8.56
2023-02-04T20:35:19.824Z,8.62
2023-02-04T20:37:52.845Z,8.64
2023-02-04T20:40:22.440Z,8.65
2023-02-04T20:42:52.757Z,8.69
2023-02-04T20:45:33.976Z,8.76
2023-02-04T20:48:27.202Z,8.74
2023-02-04T20:50:58.555Z,8.78
2023-02-04T20:53:58.299Z,8.78
2023-02-04T20:56:37.297Z,8.74
2023-02-04T20:59:12.755Z,8.68
2023-02-04T21:01:48.632Z,8.59
2023-02-04T21:04:34.534Z,8.59
2023-02-04T21:07:15.668Z,8.58
2023-02-04T21:09:42.321Z,8.64
2023-02-04T21:12:08.766Z,8.72
2023-02-04T21:14:35.699Z,8.78
2023-02-04T21:17:04.584Z,8.73
2023-02-04T21:19:31.031Z,8.66
2023-02-04T21:21:58.013Z,8.61
2023-02-04T21:24:26.018Z,8.62
2023-02-04T21:26:53.168Z,8.65
2023-02-04T21:29:19.900Z,8.71
2023-02-04T21:31:46.564Z,8.71
2023-02-04T21:34:13.511Z,8.64
2023-02-04T21:36:39.986Z,8.67
2023-02-04T21:39:06.428Z,8.69
2023-02-04T21:41:32.852Z,8.77
2023-02-04T21:43:59.298Z,8.78
2023-02-04T21:46:25.714Z,8.71
2023-02-04T21:48:52.108Z,8.68
2023-02-04T21:51:18.524Z,8.71
2023-02-04T21:53:44.921Z,8.71
2023-02-04T21:56:11.564Z,8.66
2023-02-04T21:58:38.660Z,8.67
2023-02-04T22:01:05.357Z,8.65
2023-02-04T22:03:31.855Z,8.67
2023-02-04T22:05:58.340Z,8.69
2023-02-04T22:08:24.836Z,8.64
2023-02-04T22:10:51.269Z,8.59
2023-02-04T22:13:17.693Z,8.59
2023-02-04T22:15:44.082Z,8.60
2023-02-04T22:18:11.318Z,8.51
2023-02-04T22:20:39.471Z,8.47
2023-02-04T22:23:06.248Z,8.44
2023-02-04T22:25:33.135Z,8.40
2023-02-04T22:27:59.724Z,8.38
2023-02-04T22:30:26.357Z,8.40
2023-02-04T22:32:52.848Z,8.44
2023-02-04T22:35:19.453Z,8.47
2023-02-04T22:37:45.881Z,8.48
2023-02-04T22:40:12.907Z,8.54
2023-02-04T22:42:39.898Z,8.52
2023-02-04T22:45:07.963Z,8.50
2023-02-04T22:47:34.376Z,8.41
2023-02-04T22:50:00.977Z,8.45
2023-02-04T22:52:27.352Z,8.49
2023-02-04T22:54:53.793Z,8.43
2023-02-04T22:57:20.271Z,8.33
2023-02-04T22:59:46.668Z,8.31
2023-02-04T23:02:13.194Z,8.34
2023-02-04T23:04:39.663Z,8.41
2023-02-04T23:07:06.127Z,8.43
2023-02-04T23:09:33.209Z,8.45
2023-02-04T23:12:12.780Z,8.50
2023-02-04T23:14:44.600Z,8.56
2023-02-04T23:17:12.071Z,8.50
2023-02-04T23:19:39.092Z,8.50
2023-02-04T23:22:07.088Z,8.49
2023-02-04T23:24:34.510Z,8.45
2023-02-04T23:27:01.614Z,8.49
2023-02-04T23:29:31.986Z,8.47
2023-02-04T23:31:59.134Z,8.49
2023-02-04T23:34:26.247Z,8.50
2023-02-04T23:36:52.994Z,8.58
2023-02-04T23:39:23.275Z,8.66
2023-02-04T23:41:50.065Z,8.66
2023-02-04T23:44:16.776Z,8.62
2023-02-04T23:46:43.299Z,8.58
2023-02-04T23:49:10.187Z,8.52
2023-02-04T23:51:36.621Z,8.48
2023-02-04T23:54:03.289Z,8.45
2023-02-04T23:56:29.686Z,8.42
2023-02-04T23:58:56.230Z,8.40
